Hlavní strana
METAR-TAF:

METAR-TAF

Letiště :

Voroněž, Rusko

zeměpisná šířka: 51-39N, zeměpisná délka: 039-15E, výška: 154 m

Aktuální stav počasí

Zpráva byla vytvořena před 26 minutami, v 13:30 UTC
Západní vítr 4 kt
Teplota 2°C
Vlhkost vzduchu 87%
Tlak 1016 hPa
Viditelnost 10 km a více
Oblačno až skoro zataženo ve výšce 1600 ft

METAR: UUOO 251330Z 27002MPS 9999 BKN016 02/M00 Q1016 R30/190055 NOSIG RMK QFE748

Čas: 16:56 (13:56 UTC)

Předpověď počasí

Zpráva byla vytvořena před 2 hodinami a 57 minutami, v 10:59 UTC
Předpověď platná od 25 v 12 UTC do 25 v 21 UTC
Západoseverozápadní vítr 6 kt
Viditelnost 10 km a více
Oblačno až skoro zataženo ve výšce 1500 ft

TAF: UUOO 251059Z 2512/2521 30003MPS 9999 BKN015

Stav a předpovědi počasí z více než 4 000 letišť (zprávy METAR a TAF).

Červené a žluté tečky na mapě představují dostupné meteorologické stanice.

Když kurzor umístíte na tečku, zobrazí se název stanice.

Pak kliknutím zobrazíte stav a předpověď počasí.

Chcete-li změnit mapu, kliknutím na zelené tlačítko se znaménkem +mapu přiblížíte, kliknutím na zelené tlačítko se znaménkem – mapu oddálíte a kliknutím na zelené šipky přejdete na sousední mapy.


METAR-TAF: